createdAt,value
2019-04-19T00:01:22.666Z,13.23
2019-04-19T00:02:33.404Z,12.53
2019-04-19T00:03:37.011Z,9.35
2019-04-19T00:04:47.093Z,11.18
2019-04-19T00:05:55.947Z,12.47
2019-04-19T00:07:09.792Z,10.63
2019-04-19T00:08:19.948Z,11.67
2019-04-19T00:09:28.960Z,11.22
2019-04-19T00:10:29.067Z,10.28
2019-04-19T00:11:35.010Z,12.93
2019-04-19T00:12:40.410Z,10.55
2019-04-19T00:13:38.694Z,12.05
2019-04-19T00:15:03.467Z,12.80
2019-04-19T00:16:27.767Z,11.93
2019-04-19T00:17:35.417Z,10.43
2019-04-19T00:21:04.113Z,11.25
2019-04-19T00:22:23.315Z,11.70
2019-04-19T00:25:00.789Z,13.10
2019-04-19T00:26:25.913Z,9.57
2019-04-19T00:29:42.426Z,10.55
2019-04-19T00:32:37.885Z,11.15
2019-04-19T00:37:10.004Z,11.97
2019-04-19T00:40:32.636Z,12.90
2019-04-19T00:42:18.134Z,11.20
2019-04-19T00:43:58.903Z,12.53
2019-04-19T00:47:14.526Z,10.58
2019-04-19T00:50:20.238Z,11.03
2019-04-19T00:51:55.207Z,11.45
2019-04-19T00:53:11.109Z,11.65
2019-04-19T00:54:30.047Z,10.90
2019-04-19T00:59:15.020Z,14.20
2019-04-19T01:00:39.947Z,9.43
2019-04-19T01:05:18.611Z,10.32
2019-04-19T01:06:48.472Z,11.13
2019-04-19T01:11:46.005Z,11.63
2019-04-19T01:12:52.777Z,11.30
2019-04-19T01:13:58.925Z,11.05
2019-04-19T01:15:04.675Z,10.32
2019-04-19T01:16:08.946Z,10.03
2019-04-19T01:17:17.533Z,10.00
2019-04-19T01:18:22.424Z,11.73
2019-04-19T01:19:16.619Z,9.58
2019-04-19T01:20:20.484Z,11.80
2019-04-19T01:21:24.284Z,12.73
2019-04-19T01:22:31.148Z,13.43
2019-04-19T01:23:41.348Z,12.17
2019-04-19T01:24:46.335Z,11.25
2019-04-19T01:25:56.024Z,10.72
2019-04-19T01:26:57.508Z,12.47
2019-04-19T01:28:07.388Z,12.10
2019-04-19T01:29:11.060Z,12.65
2019-04-19T01:30:17.930Z,12.40
2019-04-19T01:31:23.281Z,11.53
2019-04-19T01:32:26.251Z,9.75
2019-04-19T01:33:37.416Z,11.93
2019-04-19T01:34:37.652Z,12.00
2019-04-19T01:35:46.455Z,10.32
2019-04-19T01:36:49.743Z,12.07
2019-04-19T01:37:59.461Z,12.87
2019-04-19T01:39:19.304Z,11.80
2019-04-19T01:40:21.084Z,11.57
2019-04-19T01:41:29.733Z,14.68
2019-04-19T01:42:38.873Z,12.23
2019-04-19T01:43:44.742Z,12.20
2019-04-19T01:44:54.498Z,10.08
2019-04-19T01:46:15.831Z,11.00
2019-04-19T01:47:40.513Z,13.13
2019-04-19T01:48:53.582Z,11.23
2019-04-19T01:50:35.335Z,10.33
2019-04-19T01:51:51.632Z,9.53
2019-04-19T01:53:07.812Z,11.63
2019-04-19T01:54:03.090Z,12.25
2019-04-19T01:55:01.634Z,11.28
2019-04-19T01:56:03.903Z,12.03
2019-04-19T01:57:06.306Z,10.73
2019-04-19T01:58:14.295Z,11.60
2019-04-19T01:59:16.554Z,10.18
2019-04-19T02:00:30.304Z,9.58
2019-04-19T02:01:30.044Z,10.30
2019-04-19T02:02:38.872Z,11.45
2019-04-19T02:03:46.155Z,10.43
2019-04-19T02:04:45.595Z,11.93
2019-04-19T02:05:55.145Z,11.83
2019-04-19T02:06:56.339Z,10.80
2019-04-19T02:08:05.283Z,10.65
2019-04-19T02:09:11.228Z,10.23
2019-04-19T02:11:01.069Z,9.98
2019-04-19T02:12:18.289Z,12.63
2019-04-19T02:13:17.109Z,12.07
2019-04-19T02:14:19.143Z,15.03
2019-04-19T02:15:29.712Z,13.93
2019-04-19T02:16:28.207Z,12.47
2019-04-19T02:17:34.885Z,12.07
2019-04-19T02:18:37.262Z,11.50
2019-04-19T02:19:48.126Z,12.57
2019-04-19T02:20:50.036Z,11.10
2019-04-19T02:21:55.464Z,12.07
2019-04-19T02:23:03.106Z,10.53
2019-04-19T02:24:07.166Z,11.13
2019-04-19T02:25:17.084Z,9.60
2019-04-19T02:26:20.314Z,10.57
2019-04-19T02:27:31.049Z,11.53
2019-04-19T02:28:34.458Z,14.67
2019-04-19T02:29:37.112Z,13.32
2019-04-19T02:30:53.611Z,12.23
2019-04-19T02:32:15.461Z,11.63
2019-04-19T02:33:27.570Z,14.20
2019-04-19T02:35:29.831Z,10.77
2019-04-19T02:36:45.764Z,10.33
2019-04-19T02:37:45.060Z,11.33
2019-04-19T02:38:58.618Z,12.40
2019-04-19T02:40:02.357Z,11.13
2019-04-19T02:41:01.198Z,10.47
2019-04-19T02:43:17.195Z,12.73
2019-04-19T02:44:17.633Z,12.43
2019-04-19T02:45:25.974Z,11.77
2019-04-19T02:47:40.060Z,11.53
2019-04-19T02:48:59.729Z,11.70
2019-04-19T02:49:54.613Z,14.30
2019-04-19T02:52:09.905Z,11.23
2019-04-19T02:53:10.627Z,12.43
2019-04-19T02:55:19.130Z,10.77
2019-04-19T02:58:19.971Z,11.57
2019-04-19T02:59:47.465Z,11.20
2019-04-19T03:01:05.389Z,11.87
2019-04-19T03:03:30.910Z,11.03
2019-04-19T03:04:55.214Z,11.40
2019-04-19T03:05:36.940Z,11.73
2019-04-19T03:06:30.589Z,17.97
2019-04-19T03:07:30.141Z,13.27
2019-04-19T03:08:35.500Z,12.40
2019-04-19T03:09:43.414Z,13.67
2019-04-19T03:10:58.460Z,14.87
2019-04-19T03:12:06.455Z,12.03
2019-04-19T03:13:16.229Z,12.63
2019-04-19T03:14:19.286Z,14.60
2019-04-19T03:15:37.145Z,10.83
2019-04-19T03:16:39.657Z,11.53
2019-04-19T03:17:45.077Z,13.30
2019-04-19T03:18:45.172Z,11.67
2019-04-19T03:19:54.258Z,10.13
2019-04-19T03:20:56.072Z,11.90
2019-04-19T03:22:01.375Z,14.07
2019-04-19T03:23:09.730Z,12.03
2019-04-19T03:24:14.157Z,11.23
2019-04-19T03:25:26.628Z,12.07
2019-04-19T03:26:32.685Z,12.93
2019-04-19T03:27:35.034Z,13.93
2019-04-19T03:28:38.543Z,12.27
2019-04-19T03:29:40.539Z,13.77
2019-04-19T03:31:10.186Z,12.07
2019-04-19T03:32:21.910Z,11.80
2019-04-19T03:34:30.491Z,11.93
2019-04-19T03:35:20.261Z,13.00
2019-04-19T03:36:24.702Z,10.97
2019-04-19T03:37:39.550Z,12.20
2019-04-19T03:38:38.882Z,13.53
2019-04-19T03:40:02.210Z,10.70
2019-04-19T03:40:57.307Z,11.27
2019-04-19T03:42:29.530Z,12.17
2019-04-19T03:43:36.518Z,12.47
2019-04-19T03:44:41.577Z,11.70
2019-04-19T03:45:59.935Z,10.87
2019-04-19T03:49:19.446Z,11.83
2019-04-19T03:50:17.777Z,12.77
2019-04-19T03:51:18.404Z,11.70
2019-04-19T03:52:29.133Z,13.20
2019-04-19T03:53:38.477Z,13.13
2019-04-19T03:54:32.788Z,12.00
2019-04-19T03:55:57.809Z,11.23
2019-04-19T03:56:49.497Z,11.40
2019-04-19T03:57:51.482Z,12.10
2019-04-19T03:58:45.982Z,11.50
2019-04-19T03:59:50.361Z,11.00
2019-04-19T04:00:56.199Z,10.87
2019-04-19T04:02:01.435Z,12.30
2019-04-19T04:03:12.966Z,11.83
2019-04-19T04:04:20.098Z,12.27
2019-04-19T04:05:19.799Z,13.80
2019-04-19T04:06:32.361Z,13.50
2019-04-19T04:07:32.693Z,12.77
2019-04-19T04:08:44.956Z,12.07
2019-04-19T04:09:59.270Z,12.73
2019-04-19T04:11:26.818Z,12.27
2019-04-19T04:13:16.936Z,12.40
2019-04-19T04:16:09.846Z,12.07
2019-04-19T04:17:06.107Z,10.73
2019-04-19T04:18:11.288Z,11.60
2019-04-19T04:19:16.539Z,10.23
2019-04-19T04:20:22.130Z,13.27
2019-04-19T04:21:32.249Z,13.60
2019-04-19T04:22:37.334Z,11.70
2019-04-19T04:23:43.066Z,11.97
2019-04-19T04:24:54.304Z,12.93
2019-04-19T04:25:59.147Z,11.40
2019-04-19T04:27:07.666Z,12.27
2019-04-19T04:28:14.779Z,12.47
2019-04-19T04:29:19.166Z,10.60
2019-04-19T04:30:25.898Z,14.93
2019-04-19T04:31:30.271Z,9.97
2019-04-19T04:32:42.878Z,11.00
2019-04-19T04:33:48.286Z,11.23
2019-04-19T04:34:54.269Z,12.30
2019-04-19T04:36:06.713Z,11.73
2019-04-19T04:37:08.484Z,12.20
2019-04-19T04:38:09.010Z,11.77
2019-04-19T04:39:07.365Z,12.47
2019-04-19T04:40:12.605Z,12.47
2019-04-19T04:41:21.819Z,11.40
2019-04-19T04:42:30.900Z,11.07
2019-04-19T04:43:41.243Z,11.20
2019-04-19T04:45:03.684Z,13.47
2019-04-19T04:46:08.788Z,12.50
2019-04-19T04:47:24.016Z,13.77
2019-04-19T04:49:01.488Z,12.33
2019-04-19T04:50:34.081Z,12.63
2019-04-19T04:51:44.501Z,14.13
2019-04-19T04:52:45.560Z,12.30
2019-04-19T04:53:55.288Z,10.77
2019-04-19T04:55:07.300Z,12.63
2019-04-19T04:56:15.555Z,11.33
2019-04-19T04:57:32.849Z,15.27
2019-04-19T04:58:36.778Z,9.27
2019-04-19T04:59:38.000Z,11.47
2019-04-19T05:00:50.961Z,14.70
2019-04-19T05:01:57.995Z,12.43
2019-04-19T05:03:12.843Z,12.33
2019-04-19T05:04:15.208Z,13.47
2019-04-19T05:05:24.606Z,13.07
2019-04-19T05:06:29.785Z,12.50
2019-04-19T05:07:40.697Z,13.20
2019-04-19T05:08:48.939Z,10.72
2019-04-19T05:09:49.841Z,12.23
2019-04-19T05:10:56.811Z,11.68
2019-04-19T05:12:07.830Z,12.70
2019-04-19T05:14:19.493Z,11.53
2019-04-19T05:15:24.708Z,14.73
2019-04-19T05:16:35.258Z,11.25
2019-04-19T05:18:40.212Z,13.58
2019-04-19T05:19:53.708Z,10.40
2019-04-19T05:20:48.094Z,11.15
2019-04-19T05:22:00.751Z,12.55
2019-04-19T05:23:03.054Z,10.55
2019-04-19T05:24:16.196Z,12.00
2019-04-19T05:25:29.266Z,12.15
2019-04-19T05:26:37.191Z,12.28
2019-04-19T05:27:33.252Z,11.70
2019-04-19T05:28:37.440Z,10.70
2019-04-19T05:29:34.765Z,9.55
2019-04-19T05:30:42.171Z,9.35
2019-04-19T05:31:43.485Z,9.63
2019-04-19T05:32:54.549Z,10.20
2019-04-19T05:34:11.035Z,12.13
2019-04-19T05:35:08.596Z,12.55
2019-04-19T05:36:27.520Z,11.73
2019-04-19T05:37:29.334Z,11.55
2019-04-19T05:40:12.198Z,12.25
2019-04-19T05:41:34.181Z,10.35
2019-04-19T05:42:52.412Z,12.10
2019-04-19T05:44:19.623Z,12.37
2019-04-19T05:46:31.401Z,10.08
2019-04-19T05:47:26.181Z,10.05
2019-04-19T05:48:28.251Z,12.65
2019-04-19T05:49:39.957Z,10.95
2019-04-19T05:50:47.892Z,10.18
2019-04-19T05:51:53.902Z,11.05
2019-04-19T05:52:55.376Z,13.48
2019-04-19T05:53:51.898Z,12.58
2019-04-19T05:54:53.815Z,11.08
2019-04-19T05:55:58.678Z,11.22
2019-04-19T05:57:25.647Z,10.58
2019-04-19T05:58:20.629Z,17.87
2019-04-19T05:59:29.210Z,11.00
2019-04-19T06:00:37.585Z,10.10
2019-04-19T06:01:50.043Z,11.43
2019-04-19T06:02:52.284Z,11.95
2019-04-19T06:03:57.501Z,10.30
2019-04-19T06:05:19.312Z,12.58
2019-04-19T06:06:19.642Z,9.93
2019-04-19T06:07:24.071Z,9.48
2019-04-19T06:08:18.623Z,11.65
2019-04-19T06:09:13.979Z,11.97
2019-04-19T06:10:19.297Z,10.60
2019-04-19T06:11:30.854Z,12.40
2019-04-19T06:12:33.541Z,10.28
2019-04-19T06:13:42.730Z,11.03
2019-04-19T06:15:05.323Z,11.83
2019-04-19T06:16:07.338Z,14.87
2019-04-19T06:17:30.754Z,9.25
2019-04-19T06:18:40.269Z,12.18
2019-04-19T06:19:50.469Z,12.55
2019-04-19T06:21:06.629Z,10.75
2019-04-19T06:22:04.476Z,13.72
2019-04-19T06:23:13.507Z,13.93
2019-04-19T06:24:21.950Z,10.98
2019-04-19T06:25:36.744Z,11.63
2019-04-19T06:27:53.075Z,11.83
2019-04-19T06:29:00.131Z,13.48
2019-04-19T06:29:58.888Z,10.93
2019-04-19T06:30:55.060Z,10.28
2019-04-19T06:32:07.662Z,11.30
2019-04-19T06:33:10.840Z,10.93
2019-04-19T06:34:21.403Z,11.08
2019-04-19T06:35:37.369Z,11.10
2019-04-19T06:36:31.350Z,9.60
2019-04-19T06:37:37.644Z,11.38
2019-04-19T06:38:42.314Z,10.18
2019-04-19T06:39:51.436Z,10.53
2019-04-19T06:41:03.485Z,12.73
2019-04-19T06:42:04.311Z,11.03
2019-04-19T06:43:13.435Z,11.20
2019-04-19T06:44:20.930Z,11.45
2019-04-19T06:45:34.678Z,10.00
2019-04-19T06:46:36.092Z,11.73
2019-04-19T06:47:38.916Z,10.05
2019-04-19T06:48:43.402Z,10.53
2019-04-19T06:49:44.189Z,10.38
2019-04-19T06:50:53.800Z,11.80
2019-04-19T06:52:05.572Z,10.55
2019-04-19T06:53:01.727Z,12.18
2019-04-19T06:54:10.526Z,11.10
2019-04-19T06:55:23.345Z,11.48
2019-04-19T06:56:29.655Z,10.05
2019-04-19T06:57:32.550Z,13.13
2019-04-19T06:58:45.376Z,10.13
2019-04-19T06:59:55.112Z,10.13
2019-04-19T07:01:00.366Z,9.85
2019-04-19T07:01:54.725Z,11.12
2019-04-19T07:02:58.332Z,11.33
2019-04-19T07:04:04.106Z,10.32
2019-04-19T07:05:23.870Z,10.53
2019-04-19T07:06:35.061Z,12.75
2019-04-19T07:07:36.525Z,12.82
2019-04-19T07:09:02.822Z,13.35
2019-04-19T07:09:56.533Z,10.38
2019-04-19T07:11:00.532Z,12.00
2019-04-19T07:12:06.725Z,12.33
2019-04-19T07:13:10.828Z,11.30
2019-04-19T07:14:05.987Z,10.35
2019-04-19T07:15:32.144Z,11.68
2019-04-19T07:16:30.570Z,9.83
2019-04-19T07:17:34.170Z,11.08
2019-04-19T07:18:37.213Z,10.20
2019-04-19T07:19:52.896Z,11.83
2019-04-19T07:20:56.298Z,10.40
2019-04-19T07:22:02.144Z,9.88
2019-04-19T07:23:05.551Z,10.30
2019-04-19T07:24:28.025Z,10.68
2019-04-19T07:25:32.421Z,10.75
2019-04-19T07:26:36.268Z,11.85
2019-04-19T07:27:30.825Z,11.55
2019-04-19T07:28:26.827Z,12.25
2019-04-19T07:29:29.695Z,10.60
2019-04-19T07:30:34.958Z,10.85
2019-04-19T07:31:41.513Z,11.00
2019-04-19T07:32:57.358Z,9.93
2019-04-19T07:34:06.334Z,11.97
2019-04-19T07:35:13.270Z,12.43
2019-04-19T07:36:40.335Z,10.88
2019-04-19T07:37:30.372Z,14.30
2019-04-19T07:38:52.562Z,11.65
2019-04-19T07:39:57.136Z,9.85
2019-04-19T07:40:55.304Z,12.33
2019-04-19T07:42:03.464Z,9.85
2019-04-19T07:43:05.560Z,10.13
2019-04-19T07:44:29.714Z,12.70
2019-04-19T07:46:03.985Z,16.42
2019-04-19T07:47:22.701Z,10.78
2019-04-19T07:48:24.631Z,10.72
2019-04-19T07:49:29.338Z,11.30
2019-04-19T07:50:42.349Z,10.23
2019-04-19T07:51:53.115Z,11.50
2019-04-19T07:52:53.739Z,10.45
2019-04-19T07:53:54.661Z,12.55
2019-04-19T07:55:03.734Z,9.95
2019-04-19T07:56:17.556Z,11.90
2019-04-19T07:57:42.195Z,10.98
2019-04-19T07:59:49.089Z,12.88
2019-04-19T08:03:11.251Z,11.00
2019-04-19T08:06:35.936Z,12.03
2019-04-19T08:08:06.822Z,11.20
2019-04-19T08:09:53.820Z,9.78
2019-04-19T08:11:01.564Z,11.33
2019-04-19T08:15:38.752Z,9.93
2019-04-19T08:16:49.508Z,10.23
2019-04-19T08:17:42.109Z,9.48
2019-04-19T08:27:27.995Z,11.28
2019-04-19T08:28:24.762Z,11.35
2019-04-19T08:29:28.803Z,10.20
2019-04-19T08:30:33.870Z,8.48
2019-04-19T08:31:29.846Z,9.45
2019-04-19T08:32:34.564Z,9.85
2019-04-19T08:33:41.149Z,10.98
2019-04-19T08:34:54.575Z,9.33
2019-04-19T08:35:55.864Z,10.15
2019-04-19T08:37:00.578Z,11.65
2019-04-19T08:38:10.189Z,9.20
2019-04-19T08:39:27.654Z,9.03
2019-04-19T08:40:33.549Z,9.53
2019-04-19T08:41:39.798Z,8.53
2019-04-19T08:42:47.917Z,9.25
2019-04-19T08:43:51.211Z,13.15
2019-04-19T08:44:51.227Z,12.23
2019-04-19T08:45:58.795Z,8.65
2019-04-19T08:47:22.926Z,10.82
2019-04-19T08:48:51.210Z,10.98
2019-04-19T08:50:08.467Z,11.68
2019-04-19T08:51:30.419Z,9.63
2019-04-19T08:52:36.840Z,11.05
2019-04-19T08:53:54.483Z,9.45
2019-04-19T08:55:11.304Z,11.63
2019-04-19T08:56:11.772Z,9.65
2019-04-19T08:57:12.548Z,9.68
2019-04-19T08:58:30.381Z,10.03
2019-04-19T08:59:43.853Z,11.97
2019-04-19T09:01:56.728Z,10.88
2019-04-19T09:02:55.613Z,9.40
2019-04-19T09:04:12.237Z,8.58
2019-04-19T09:05:09.500Z,10.85
2019-04-19T09:07:45.158Z,7.92
2019-04-19T09:08:34.767Z,8.93
2019-04-19T09:09:48.479Z,9.70
2019-04-19T09:10:49.222Z,7.70
2019-04-19T09:11:57.760Z,8.05
2019-04-19T09:13:12.178Z,9.93
2019-04-19T09:14:09.662Z,7.80
2019-04-19T09:15:18.846Z,8.68
2019-04-19T09:16:19.506Z,10.40
2019-04-19T09:17:29.995Z,9.35
2019-04-19T09:18:38.936Z,9.28
2019-04-19T09:20:02.152Z,7.50
2019-04-19T09:20:44.229Z,9.93
2019-04-19T09:21:44.650Z,9.40
2019-04-19T09:23:11.695Z,8.48
2019-04-19T09:24:02.924Z,6.95
2019-04-19T09:25:11.666Z,9.13
2019-04-19T09:26:27.782Z,7.12
2019-04-19T09:27:37.336Z,9.60
2019-04-19T09:28:54.159Z,8.58
2019-04-19T09:29:53.297Z,8.48
2019-04-19T09:30:52.650Z,7.67
2019-04-19T09:31:51.735Z,7.33
2019-04-19T09:32:49.401Z,7.37
2019-04-19T09:34:01.741Z,8.35
2019-04-19T09:35:03.739Z,6.70
2019-04-19T09:36:13.064Z,6.05
2019-04-19T09:37:21.613Z,7.08
2019-04-19T09:38:32.580Z,7.37
2019-04-19T09:39:43.687Z,7.85
2019-04-19T09:40:41.539Z,10.85
2019-04-19T09:41:44.288Z,9.40
2019-04-19T09:42:53.905Z,7.15
2019-04-19T09:44:01.986Z,7.87
2019-04-19T09:45:01.983Z,6.53
2019-04-19T09:46:06.238Z,7.25
2019-04-19T09:47:12.090Z,6.33
2019-04-19T09:48:39.191Z,6.78
2019-04-19T09:49:37.677Z,7.42
2019-04-19T09:50:42.822Z,7.35
2019-04-19T09:51:52.894Z,7.00
2019-04-19T09:52:59.823Z,5.90
2019-04-19T09:54:09.109Z,6.58
2019-04-19T09:55:18.379Z,9.25
2019-04-19T09:56:17.369Z,7.55
2019-04-19T09:57:31.383Z,6.70
2019-04-19T09:58:34.393Z,6.25
2019-04-19T09:59:25.859Z,10.63
2019-04-19T10:00:28.585Z,6.45
2019-04-19T10:01:37.075Z,6.65
2019-04-19T10:02:44.370Z,7.50
2019-04-19T10:03:49.386Z,7.85
2019-04-19T10:04:50.594Z,7.50
2019-04-19T10:05:56.860Z,8.70
2019-04-19T10:07:02.933Z,8.30
2019-04-19T10:08:09.446Z,8.28
2019-04-19T10:09:20.133Z,6.70
2019-04-19T10:10:22.830Z,9.68
2019-04-19T10:11:28.914Z,8.88
2019-04-19T10:12:33.637Z,6.62
2019-04-19T10:13:38.204Z,6.67
2019-04-19T10:14:43.830Z,8.28
2019-04-19T10:15:58.542Z,6.67
2019-04-19T10:17:13.552Z,6.20
2019-04-19T10:18:18.573Z,5.95
2019-04-19T10:19:24.450Z,5.83
2019-04-19T10:20:54.704Z,6.60
2019-04-19T10:22:12.285Z,7.40
2019-04-19T10:23:17.568Z,6.22
2019-04-19T10:24:23.175Z,6.08
2019-04-19T10:25:33.704Z,6.78
2019-04-19T10:26:48.200Z,4.47
2019-04-19T10:27:53.554Z,5.50
2019-04-19T10:28:58.586Z,5.28
2019-04-19T10:30:04.188Z,5.30
2019-04-19T10:31:13.420Z,5.40
2019-04-19T10:32:24.500Z,5.00
2019-04-19T10:33:37.819Z,5.78
2019-04-19T10:34:36.485Z,4.90
2019-04-19T10:35:41.268Z,4.65
2019-04-19T10:36:49.815Z,5.42
2019-04-19T10:37:55.644Z,6.15
2019-04-19T10:39:01.328Z,4.78
2019-04-19T10:40:10.051Z,4.78
2019-04-19T10:41:15.740Z,4.35
2019-04-19T10:42:20.866Z,4.55
2019-04-19T10:43:25.343Z,5.10
2019-04-19T10:44:29.933Z,3.95
2019-04-19T10:45:34.433Z,4.22
2019-04-19T10:46:38.946Z,4.37
2019-04-19T10:47:44.261Z,4.22
2019-04-19T10:48:58.139Z,3.87
2019-04-19T10:50:11.216Z,5.15
2019-04-19T10:51:08.767Z,5.92
2019-04-19T10:52:33.135Z,3.22
2019-04-19T10:53:38.628Z,3.80
2019-04-19T10:54:43.313Z,4.15
2019-04-19T10:55:54.405Z,5.83
2019-04-19T10:57:06.349Z,3.65
2019-04-19T10:58:11.622Z,3.70
2019-04-19T10:59:16.423Z,4.47
2019-04-19T11:00:21.663Z,3.00
2019-04-19T11:01:27.323Z,3.60
2019-04-19T11:02:34.440Z,2.98
2019-04-19T11:03:39.266Z,2.80
2019-04-19T11:04:45.414Z,2.85
2019-04-19T11:05:50.453Z,3.40
2019-04-19T11:06:55.712Z,2.90
2019-04-19T11:08:01.252Z,2.52
2019-04-19T11:09:06.928Z,3.42
2019-04-19T11:10:11.970Z,3.02
2019-04-19T11:11:17.382Z,3.27
2019-04-19T11:12:23.997Z,2.55
2019-04-19T11:13:31.257Z,2.70
2019-04-19T11:14:36.487Z,2.50
2019-04-19T11:15:42.363Z,2.95
2019-04-19T11:16:47.592Z,3.42
2019-04-19T11:17:52.113Z,4.17
2019-04-19T11:19:09.127Z,4.97
2019-04-19T11:20:17.883Z,2.92
2019-04-19T11:21:09.448Z,3.55
2019-04-19T11:22:14.300Z,4.15
2019-04-19T11:23:19.817Z,2.75
2019-04-19T11:24:25.528Z,4.42
2019-04-19T11:25:30.361Z,4.08
2019-04-19T11:26:35.075Z,3.62
2019-04-19T11:27:39.513Z,3.60
2019-04-19T11:28:45.378Z,2.90
2019-04-19T11:29:52.214Z,2.37
2019-04-19T11:31:18.985Z,4.72
2019-04-19T11:32:42.469Z,2.92
2019-04-19T11:33:47.399Z,3.52
2019-04-19T11:35:11.826Z,3.12
2019-04-19T11:36:17.545Z,4.40
2019-04-19T11:37:23.189Z,4.75
2019-04-19T11:38:29.114Z,3.75
2019-04-19T11:39:34.983Z,3.37
2019-04-19T11:40:39.559Z,2.77
2019-04-19T11:41:45.116Z,3.87
2019-04-19T11:42:51.198Z,3.50
2019-04-19T11:43:55.809Z,3.80
2019-04-19T11:45:01.489Z,6.75
2019-04-19T11:46:06.359Z,3.58
2019-04-19T11:47:11.139Z,5.70
2019-04-19T11:48:15.805Z,3.02
2019-04-19T11:49:28.612Z,3.52
2019-04-19T11:50:27.778Z,3.72
2019-04-19T11:51:32.177Z,3.42
2019-04-19T11:52:41.868Z,3.08
2019-04-19T11:53:48.670Z,3.67
2019-04-19T11:54:55.021Z,3.50
2019-04-19T11:56:36.487Z,3.50
2019-04-19T11:57:44.122Z,3.52
2019-04-19T11:58:50.779Z,4.25
2019-04-19T12:00:06.084Z,4.58
2019-04-19T12:01:18.252Z,3.60
2019-04-19T12:02:30.550Z,3.65
2019-04-19T12:03:39.945Z,4.78
2019-04-19T12:04:43.986Z,4.20
2019-04-19T12:05:50.367Z,3.60
2019-04-19T12:06:55.013Z,3.20
2019-04-19T12:08:00.172Z,4.20
2019-04-19T12:09:09.182Z,3.30
2019-04-19T12:10:14.583Z,3.40
2019-04-19T12:11:22.870Z,4.08
2019-04-19T12:12:28.408Z,3.65
2019-04-19T12:13:37.458Z,4.45
2019-04-19T12:14:39.896Z,5.05
2019-04-19T12:15:47.012Z,4.12
2019-04-19T12:16:50.899Z,4.22
2019-04-19T12:17:57.864Z,4.08
2019-04-19T12:19:02.567Z,3.30
2019-04-19T12:20:09.602Z,4.00
2019-04-19T12:21:15.411Z,4.05
2019-04-19T12:22:21.185Z,3.60
2019-04-19T12:23:27.551Z,4.25
2019-04-19T12:24:35.043Z,5.20
2019-04-19T12:25:41.738Z,3.33
2019-04-19T12:26:47.504Z,3.52
2019-04-19T12:28:12.044Z,3.33
2019-04-19T12:29:27.637Z,5.35
2019-04-19T12:30:23.287Z,4.30
2019-04-19T12:31:27.691Z,4.10
2019-04-19T12:32:39.898Z,3.87
2019-04-19T12:33:45.028Z,5.33
2019-04-19T12:34:50.742Z,4.00
2019-04-19T12:35:55.387Z,4.05
2019-04-19T12:36:59.788Z,4.17
2019-04-19T12:38:04.508Z,4.28
2019-04-19T12:39:30.510Z,3.47
2019-04-19T12:40:41.025Z,3.60
2019-04-19T12:41:48.237Z,3.65
2019-04-19T12:42:53.843Z,6.30
2019-04-19T12:43:59.426Z,5.17
2019-04-19T12:45:04.199Z,3.65
2019-04-19T12:46:07.977Z,3.98
2019-04-19T12:47:13.041Z,3.98
2019-04-19T12:48:19.551Z,3.60
2019-04-19T12:49:24.649Z,4.92
2019-04-19T12:50:29.515Z,3.52
2019-04-19T12:51:36.443Z,4.83
2019-04-19T12:52:42.159Z,4.30
2019-04-19T12:53:47.927Z,3.27
2019-04-19T12:54:54.188Z,4.70
2019-04-19T12:55:59.889Z,4.20
2019-04-19T12:57:05.622Z,5.08
2019-04-19T12:58:10.311Z,5.30
2019-04-19T12:59:17.327Z,3.70
2019-04-19T13:00:23.578Z,3.42
2019-04-19T13:01:32.805Z,5.15
2019-04-19T13:02:53.977Z,4.05
2019-04-19T13:04:10.682Z,3.00
2019-04-19T13:05:20.461Z,4.00
2019-04-19T13:06:27.381Z,3.72
2019-04-19T13:07:33.158Z,3.47
2019-04-19T13:08:39.064Z,3.35
2019-04-19T13:09:44.639Z,4.22
2019-04-19T13:10:49.262Z,3.52
2019-04-19T13:11:56.785Z,3.58
2019-04-19T13:13:21.604Z,3.27
2019-04-19T13:14:45.912Z,4.30
2019-04-19T13:16:10.664Z,3.50
2019-04-19T13:17:34.198Z,3.33
2019-04-19T13:18:58.453Z,4.00
2019-04-19T13:20:27.764Z,3.52
2019-04-19T13:21:47.998Z,5.45
2019-04-19T13:23:12.542Z,4.53
2019-04-19T13:24:36.551Z,4.15
2019-04-19T13:25:59.995Z,5.65
2019-04-19T13:29:07.156Z,3.45
2019-04-19T13:30:41.212Z,5.17
2019-04-19T13:31:56.737Z,4.58
2019-04-19T13:33:21.588Z,2.92
2019-04-19T13:34:57.107Z,4.00
2019-04-19T13:36:31.709Z,6.22
2019-04-19T13:38:13.143Z,3.47
2019-04-19T13:41:48.798Z,4.70
2019-04-19T13:43:13.148Z,5.45
2019-04-19T13:44:38.819Z,4.87
2019-04-19T13:46:04.407Z,3.72
2019-04-19T13:47:28.817Z,6.40
2019-04-19T13:48:46.342Z,3.70
2019-04-19T13:50:14.413Z,3.50
2019-04-19T13:51:21.086Z,5.28
2019-04-19T13:52:37.079Z,4.25
2019-04-19T13:53:54.430Z,4.42
2019-04-19T13:55:10.950Z,3.20
2019-04-19T13:56:26.858Z,3.52
2019-04-19T13:57:43.877Z,5.12
2019-04-19T13:59:01.362Z,5.08
2019-04-19T14:00:20.477Z,4.85
2019-04-19T14:01:36.739Z,4.22
2019-04-19T14:02:53.676Z,4.50
2019-04-19T14:04:09.603Z,3.62
2019-04-19T14:05:25.918Z,4.12
2019-04-19T14:06:42.343Z,5.58
2019-04-19T14:07:59.248Z,6.12
2019-04-19T14:09:18.998Z,4.62
2019-04-19T14:10:35.122Z,5.60
2019-04-19T14:11:51.275Z,4.47
2019-04-19T14:13:07.556Z,5.47
2019-04-19T14:14:23.554Z,3.85
2019-04-19T14:15:40.663Z,4.87
2019-04-19T14:16:57.746Z,4.20
2019-04-19T14:18:14.950Z,4.97
2019-04-19T14:19:31.242Z,4.50
2019-04-19T14:20:50.982Z,3.65
2019-04-19T14:22:04.809Z,4.87
2019-04-19T14:23:21.658Z,5.42
2019-04-19T14:24:37.656Z,4.30
2019-04-19T14:25:54.982Z,5.28
2019-04-19T14:27:11.426Z,4.62
2019-04-19T14:28:27.852Z,4.47
2019-04-19T14:29:43.862Z,4.70
2019-04-19T14:31:03.197Z,3.47
2019-04-19T14:32:17.470Z,4.53
2019-04-19T14:33:34.839Z,3.08
2019-04-19T14:34:51.925Z,3.37
2019-04-19T14:36:08.246Z,4.08
2019-04-19T14:37:23.879Z,3.62
2019-04-19T14:38:39.818Z,6.20
2019-04-19T14:39:56.505Z,3.62
2019-04-19T14:41:13.469Z,5.25
2019-04-19T14:42:30.770Z,3.50
2019-04-19T14:43:48.187Z,4.60
2019-04-19T14:45:05.793Z,5.12
2019-04-19T14:46:22.698Z,4.22
2019-04-19T14:47:39.323Z,3.33
2019-04-19T14:48:56.192Z,3.33
2019-04-19T14:50:12.814Z,6.22
2019-04-19T14:51:31.726Z,4.58
2019-04-19T14:52:46.564Z,6.55
2019-04-19T14:54:02.791Z,8.33
2019-04-19T14:55:19.113Z,3.92
2019-04-19T14:56:35.327Z,5.42
2019-04-19T14:57:52.029Z,4.62
2019-04-19T14:59:08.532Z,4.85
2019-04-19T15:00:25.103Z,7.22
2019-04-19T15:02:03.211Z,4.55
2019-04-19T15:03:25.151Z,5.50
2019-04-19T15:04:46.895Z,5.08
2019-04-19T15:06:03.866Z,8.10
2019-04-19T15:07:20.723Z,4.85
2019-04-19T15:08:37.494Z,5.30
2019-04-19T15:09:53.607Z,6.10
2019-04-19T15:11:09.532Z,6.35
2019-04-19T15:12:26.626Z,5.37
2019-04-19T15:13:42.930Z,4.67
2019-04-19T15:15:00.520Z,4.33
2019-04-19T15:16:16.390Z,4.28
2019-04-19T15:17:33.095Z,4.45
2019-04-19T15:18:49.557Z,6.30
2019-04-19T15:20:05.857Z,5.05
2019-04-19T15:21:23.557Z,4.50
2019-04-19T15:22:40.169Z,4.35
2019-04-19T15:23:56.604Z,4.53
2019-04-19T15:25:12.909Z,5.28
2019-04-19T15:26:29.000Z,5.03
2019-04-19T15:29:19.011Z,5.25
2019-04-19T15:30:35.077Z,4.47
2019-04-19T15:31:52.338Z,5.08
2019-04-19T15:33:08.784Z,3.67
2019-04-19T15:34:25.291Z,5.55
2019-04-19T15:35:41.655Z,5.03
2019-04-19T15:36:57.833Z,5.58
2019-04-19T15:38:14.042Z,5.05
2019-04-19T15:39:29.762Z,4.78
2019-04-19T15:40:45.907Z,5.05
2019-04-19T15:42:02.323Z,5.78
2019-04-19T15:43:19.252Z,4.15
2019-04-19T15:44:35.134Z,4.47
2019-04-19T15:45:51.237Z,4.42
2019-04-19T15:47:08.375Z,4.05
2019-04-19T15:48:32.003Z,3.92
2019-04-19T15:49:42.206Z,4.15
2019-04-19T15:51:10.888Z,4.75
2019-04-19T15:52:17.549Z,5.45
2019-04-19T15:53:34.059Z,6.05
2019-04-19T15:54:50.112Z,4.95
2019-04-19T15:56:06.698Z,5.30
2019-04-19T15:57:23.787Z,5.20
2019-04-19T15:58:40.696Z,3.40
2019-04-19T15:59:58.048Z,4.80
2019-04-19T16:01:14.522Z,3.70
2019-04-19T16:02:49.804Z,4.75
2019-04-19T16:04:05.976Z,4.83
2019-04-19T16:05:40.611Z,5.25
2019-04-19T16:07:03.857Z,4.40
2019-04-19T16:10:26.573Z,5.60
2019-04-19T16:12:02.827Z,4.87
2019-04-19T16:13:18.030Z,5.08
2019-04-19T16:14:41.908Z,5.05
2019-04-19T16:16:07.927Z,4.28
2019-04-19T16:17:43.994Z,5.45
2019-04-19T16:18:58.273Z,5.60
2019-04-19T16:20:21.539Z,5.03
2019-04-19T16:21:50.099Z,5.55
2019-04-19T16:23:10.193Z,4.40
2019-04-19T16:26:05.456Z,4.90
2019-04-19T16:31:02.556Z,9.30
2019-04-19T16:32:27.257Z,6.62
2019-04-19T16:33:52.266Z,4.75
2019-04-19T16:35:16.452Z,4.08
2019-04-19T16:36:39.896Z,5.92
2019-04-19T16:38:03.568Z,3.87
2019-04-19T16:39:31.226Z,5.83
2019-04-19T16:40:54.770Z,4.25